Time;durP1;ratioP1;P1;durP2;ratioP2;P2;SDS_P1;SDS_P2;PMS_P1;PMS_P2;Temp;Humidity;BMP_temperature;BMP_pressure;BME280_temperature;BME280_humidity;BME280_pressure;Samples;Min_cycle;Max_cycle;Signal;HPM_P1;HPM_P2
2023/03/28 00:01:29;;;;;;;3.77;2.50;;;2.60;82.70;;;;;;4986807;28;20202;-74
2023/03/28 00:03:56;;;;;;;4.47;2.13;;;2.70;81.80;;;;;;4988922;28;20266;-71
2023/03/28 00:06:23;;;;;;;7.50;2.60;;;2.70;80.50;;;;;;4989104;28;20197;-73
2023/03/28 00:08:50;;;;;;;6.30;2.50;;;2.70;79.70;;;;;;4995490;28;20524;-72
2023/03/28 00:11:18;;;;;;;6.13;2.67;;;2.70;79.70;;;;;;4995023;28;21098;-72
2023/03/28 00:13:45;;;;;;;4.60;3.10;;;2.80;79.90;;;;;;4992958;28;20557;-72
2023/03/28 00:16:11;;;;;;;4.30;2.47;;;2.80;80.00;;;;;;5001994;28;20430;-72
2023/03/28 00:18:37;;;;;;;6.28;2.58;;;2.80;79.60;;;;;;4996153;28;20476;-71
2023/03/28 00:21:18;;;;;;;7.43;2.50;;;2.80;79.30;;;;;;5001215;28;20179;-74
2023/03/28 00:23:44;;;;;;;3.80;2.50;;;2.70;79.60;;;;;;4996058;28;20429;-73
2023/03/28 00:26:12;;;;;;;5.33;2.67;;;2.70;79.60;;;;;;5001714;28;20504;-72
2023/03/28 00:28:38;;;;;;;8.83;2.80;;;2.70;79.90;;;;;;4996771;28;20418;-72
2023/03/28 00:31:05;;;;;;;6.13;2.70;;;2.60;80.00;;;;;;4998387;28;20432;-73
2023/03/28 00:33:31;;;;;;;8.80;3.00;;;2.60;80.30;;;;;;4993152;28;20514;-73
2023/03/28 00:35:57;;;;;;;5.23;2.70;;;2.60;80.50;;;;;;4997868;28;20803;-73
2023/03/28 00:38:23;;;;;;;5.20;2.63;;;2.60;80.50;;;;;;4995680;28;20552;-73
2023/03/28 00:40:48;;;;;;;4.90;2.53;;;2.50;80.80;;;;;;4999289;28;20542;-74
2023/03/28 00:43:14;;;;;;;6.43;2.90;;;2.50;80.90;;;;;;4989836;28;20633;-72
2023/03/28 00:45:41;;;;;;;4.20;2.60;;;2.50;81.40;;;;;;5002555;28;20182;-72
2023/03/28 00:48:12;;;;;;;4.63;2.50;;;2.40;81.50;;;;;;4994192;28;20599;-71
2023/03/28 00:50:45;;;;;;;7.00;2.90;;;2.40;81.80;;;;;;5000700;28;20417;-73
2023/03/28 00:53:18;;;;;;;3.90;2.70;;;2.40;81.80;;;;;;4984800;28;20473;-73
2023/03/28 00:55:48;;;;;;;5.87;2.73;;;2.30;81.80;;;;;;4998844;28;20426;-73
2023/03/28 00:58:22;;;;;;;4.80;2.67;;;2.30;82.10;;;;;;5001060;28;20929;-72
2023/03/28 01:00:49;;;;;;;6.57;2.33;;;2.30;82.10;;;;;;4997070;28;20498;-73
2023/03/28 01:03:17;;;;;;;4.93;2.60;;;2.30;81.70;;;;;;4990676;28;20535;-73
2023/03/28 01:05:44;;;;;;;6.83;2.87;;;2.40;81.80;;;;;;4999364;28;20202;-74
2023/03/28 01:08:33;;;;;;;3.87;2.80;;;2.30;81.90;;;;;;5000001;28;20851;-73
2023/03/28 01:10:59;;;;;;;6.23;2.80;;;2.30;82.10;;;;;;4996762;28;20434;-72
2023/03/28 01:13:30;;;;;;;3.80;2.23;;;2.20;81.90;;;;;;4991844;28;20459;-71
2023/03/28 01:15:56;;;;;;;5.32;2.90;;;2.20;81.90;;;;;;4988247;28;20583;-72
2023/03/28 01:18:22;;;;;;;6.90;2.70;;;2.20;82.10;;;;;;4998461;28;20215;-74
2023/03/28 01:21:08;;;;;;;4.37;2.57;;;2.20;82.50;;;;;;4995878;28;20482;-72
2023/03/28 01:24:03;;;;;;;5.47;2.27;;;2.20;82.50;;;;;;4997196;28;20437;-72
2023/03/28 01:26:51;;;;;;;6.80;2.50;;;2.20;82.40;;;;;;4999442;28;20942;-75
2023/03/28 01:29:44;;;;;;;8.38;3.00;;;2.20;82.10;;;;;;4997552;28;20532;-73
2023/03/28 01:32:18;;;;;;;8.07;3.65;;;2.20;82.10;;;;;;4996216;28;20238;-73
2023/03/28 01:34:55;;;;;;;4.80;3.15;;;2.20;83.00;;;;;;5001543;28;20193;-72
2023/03/28 01:37:58;;;;;;;7.53;3.40;;;2.10;83.30;;;;;;5004017;28;20277;-71
2023/03/28 01:40:39;;;;;;;6.35;3.13;;;2.00;83.60;;;;;;5002991;28;20631;-74
2023/03/28 01:43:04;;;;;;;4.72;2.67;;;2.00;84.10;;;;;;4990042;28;20213;-72
2023/03/28 01:45:57;;;;;;;4.57;2.50;;;1.90;84.30;;;;;;5003276;28;20173;-74
2023/03/28 01:48:52;;;;;;;6.28;2.78;;;1.90;84.60;;;;;;4998968;28;20605;-73
2023/03/28 01:51:56;;;;;;;5.95;3.00;;;1.90;84.60;;;;;;4999302;28;20194;-72
2023/03/28 01:54:48;;;;;;;7.60;2.75;;;1.80;84.70;;;;;;5002344;28;20187;-74
2023/03/28 01:57:14;;;;;;;6.13;2.80;;;1.80;84.60;;;;;;4999737;28;20201;-73
2023/03/28 02:00:28;;;;;;;6.17;3.20;;;1.90;84.90;;;;;;5003284;28;20552;-74
2023/03/28 02:03:04;;;;;;;4.80;2.90;;;1.90;84.70;;;;;;4977786;28;20226;-73
2023/03/28 02:05:33;;;;;;;4.45;3.22;;;1.90;84.60;;;;;;4986121;28;20343;-74
2023/03/28 02:08:01;;;;;;;7.15;3.47;;;1.90;84.30;;;;;;4976200;28;20196;-74
2023/03/28 02:10:30;;;;;;;5.18;2.60;;;1.90;84.30;;;;;;4990285;28;20733;-75
2023/03/28 02:12:59;;;;;;;5.22;2.80;;;1.90;84.30;;;;;;4975941;28;20215;-74
2023/03/28 02:15:27;;;;;;;4.95;3.00;;;1.90;84.30;;;;;;4983877;28;20205;-75
2023/03/28 02:18:01;;;;;;;5.18;3.00;;;1.90;84.10;;;;;;4976480;28;20239;-73
2023/03/28 02:20:31;;;;;;;6.97;3.40;;;1.90;84.10;;;;;;4985081;28;20191;-74
2023/03/28 02:23:16;;;;;;;5.60;2.80;;;2.00;84.10;;;;;;4976290;28;20250;-72
2023/03/28 02:25:41;;;;;;;10.45;4.05;;;1.90;83.80;;;;;;4973718;28;20427;-74
2023/03/28 02:28:09;;;;;;;10.03;3.70;;;1.90;84.00;;;;;;4979387;28;20221;-73
2023/03/28 02:30:35;;;;;;;4.60;2.90;;;1.90;83.80;;;;;;4979370;28;20179;-73
2023/03/28 02:33:03;;;;;;;7.40;3.60;;;1.90;84.00;;;;;;4983489;28;20252;-73
2023/03/28 02:35:46;;;;;;;6.35;3.17;;;1.90;84.00;;;;;;5004565;28;20731;-73
2023/03/28 02:38:29;;;;;;;7.37;3.53;;;1.90;83.80;;;;;;5002436;28;20739;-74
2023/03/28 02:41:28;;;;;;;5.90;3.10;;;1.90;84.10;;;;;;4997720;28;20418;-73
2023/03/28 02:44:12;;;;;;;8.00;3.22;;;1.90;83.80;;;;;;4999928;28;20194;-74
2023/03/28 02:46:55;;;;;;;7.13;3.10;;;1.90;83.70;;;;;;4994102;28;20174;-73
2023/03/28 02:49:36;;;;;;;8.50;3.13;;;2.00;83.80;;;;;;4999191;28;20213;-72
2023/03/28 02:52:24;;;;;;;5.72;3.22;;;1.90;83.70;;;;;;4989318;28;20994;-74
2023/03/28 02:55:02;;;;;;;4.80;2.47;;;1.90;83.70;;;;;;4992151;28;20182;-73
2023/03/28 02:57:51;;;;;;;9.00;3.30;;;1.90;83.80;;;;;;4996733;28;20468;-71
2023/03/28 03:00:18;;;;;;;6.40;3.17;;;1.80;83.80;;;;;;4996946;28;20498;-74
2023/03/28 03:02:48;;;;;;;6.63;2.57;;;1.80;84.00;;;;;;4995013;28;20205;-74
2023/03/28 03:05:14;;;;;;;5.43;3.40;;;1.80;84.10;;;;;;4992042;28;20444;-73
2023/03/28 03:07:41;;;;;;;9.00;3.95;;;1.80;84.10;;;;;;5002125;28;20256;-73
2023/03/28 03:10:09;;;;;;;14.68;3.40;;;1.80;84.10;;;;;;4993616;28;20194;-73
2023/03/28 03:12:35;;;;;;;17.08;4.13;;;1.70;84.30;;;;;;4994783;28;20229;-74
2023/03/28 03:15:02;;;;;;;4.95;3.00;;;1.70;84.30;;;;;;4992664;28;20194;-74
2023/03/28 03:17:29;;;;;;;5.60;3.42;;;1.70;84.30;;;;;;5002037;28;20244;-73
2023/03/28 03:19:58;;;;;;;5.97;3.35;;;1.70;84.30;;;;;;4998114;28;20178;-73
2023/03/28 03:22:23;;;;;;;5.95;3.15;;;1.70;84.10;;;;;;4994393;28;20230;-72
2023/03/28 03:24:49;;;;;;;6.00;2.80;;;1.70;84.10;;;;;;4997234;28;20221;-73
2023/03/28 03:27:17;;;;;;;7.03;3.13;;;1.70;84.10;;;;;;4996952;28;20418;-73
2023/03/28 03:29:43;;;;;;;5.55;3.50;;;1.60;84.10;;;;;;4990115;28;20413;-73
2023/03/28 03:32:09;;;;;;;5.43;3.40;;;1.60;84.10;;;;;;4992227;28;20222;-73
2023/03/28 03:34:35;;;;;;;5.77;3.33;;;1.60;84.10;;;;;;5000646;28;20189;-73
2023/03/28 03:37:01;;;;;;;7.65;3.08;;;1.60;84.30;;;;;;4995191;28;20179;-73
2023/03/28 03:39:27;;;;;;;8.52;3.80;;;1.60;84.40;;;;;;4999844;28;20352;-72
2023/03/28 03:41:53;;;;;;;4.87;3.10;;;1.60;84.40;;;;;;4991740;28;20305;-73
2023/03/28 03:44:18;;;;;;;7.43;3.47;;;1.60;84.60;;;;;;4995461;28;20697;-73
2023/03/28 03:46:44;;;;;;;6.33;3.53;;;1.50;84.70;;;;;;4993531;28;20205;-74
2023/03/28 03:49:09;;;;;;;5.10;3.63;;;1.50;84.70;;;;;;4999983;28;20192;-72
2023/03/28 03:51:35;;;;;;;10.97;3.60;;;1.50;84.90;;;;;;4992307;28;20589;-73
2023/03/28 03:54:01;;;;;;;6.50;4.10;;;1.40;85.00;;;;;;4997579;28;20655;-73
2023/03/28 03:56:26;;;;;;;12.40;3.23;;;1.40;85.20;;;;;;4996150;28;20182;-73
2023/03/28 03:58:52;;;;;;;7.73;3.90;;;1.50;85.20;;;;;;5000506;28;20620;-74
2023/03/28 04:01:17;;;;;;;6.33;3.20;;;1.50;85.50;;;;;;4993203;28;20182;-74
2023/03/28 04:03:43;;;;;;;9.13;3.50;;;1.40;85.30;;;;;;4994811;28;20831;-73
2023/03/28 04:06:09;;;;;;;5.95;3.15;;;1.40;85.60;;;;;;4994165;28;20596;-73
2023/03/28 04:08:35;;;;;;;6.73;3.67;;;1.40;85.50;;;;;;4995953;28;20264;-73
2023/03/28 04:11:00;;;;;;;7.00;3.30;;;1.30;85.50;;;;;;4993157;28;20244;-74
2023/03/28 04:13:26;;;;;;;8.87;3.90;;;1.30;85.60;;;;;;4992319;28;20703;-74
2023/03/28 04:15:51;;;;;;;5.10;3.00;;;1.40;85.70;;;;;;4997818;28;20182;-74
2023/03/28 04:18:19;;;;;;;8.40;3.40;;;1.30;85.50;;;;;;5000128;28;21065;-73
2023/03/28 04:20:48;;;;;;;7.80;3.38;;;1.30;85.50;;;;;;4997719;28;20170;-74
2023/03/28 04:23:17;;;;;;;6.50;3.05;;;1.30;85.50;;;;;;4989304;28;20210;-73
2023/03/28 04:25:43;;;;;;;8.20;4.00;;;1.30;85.60;;;;;;4995057;28;20185;-75
2023/03/28 04:28:09;;;;;;;7.93;4.00;;;1.30;85.60;;;;;;4996384;28;20422;-73
2023/03/28 04:30:35;;;;;;;9.65;3.72;;;1.30;85.50;;;;;;4996417;28;20178;-73
2023/03/28 04:33:00;;;;;;;6.77;3.47;;;1.20;85.50;;;;;;4991243;28;20352;-73
2023/03/28 04:35:28;;;;;;;8.30;3.80;;;1.20;85.70;;;;;;5004172;28;20186;-72
2023/03/28 04:37:56;;;;;;;9.70;3.20;;;1.20;85.70;;;;;;4999810;28;20565;-73
2023/03/28 04:40:23;;;;;;;7.30;3.47;;;1.30;86.00;;;;;;5002038;28;20209;-72
2023/03/28 04:42:49;;;;;;;10.88;4.38;;;1.30;85.90;;;;;;4998313;28;20213;-73
2023/03/28 04:45:14;;;;;;;10.35;4.22;;;1.30;86.00;;;;;;5003675;28;20175;-72
2023/03/28 04:47:40;;;;;;;15.13;4.40;;;1.30;86.00;;;;;;4999042;28;20185;-72
2023/03/28 04:50:07;;;;;;;10.00;4.43;;;1.20;85.90;;;;;;5003057;28;20225;-72
2023/03/28 04:52:34;;;;;;;6.05;3.45;;;1.20;85.90;;;;;;4997205;28;20213;-73
2023/03/28 04:55:00;;;;;;;10.88;4.82;;;1.20;85.90;;;;;;4999815;28;20543;-72
2023/03/28 04:57:25;;;;;;;7.97;3.83;;;1.20;85.90;;;;;;5000991;28;20217;-72
2023/03/28 04:59:51;;;;;;;6.37;3.90;;;1.20;85.70;;;;;;5005068;28;20186;-73
2023/03/28 05:02:16;;;;;;;7.80;3.97;;;1.20;85.90;;;;;;4990889;28;20759;-73
2023/03/28 05:04:43;;;;;;;8.70;4.30;;;1.20;85.70;;;;;;5008803;28;20256;-74
2023/03/28 05:07:09;;;;;;;9.45;4.25;;;1.20;85.50;;;;;;4999443;28;20254;-73
2023/03/28 05:09:35;;;;;;;8.52;4.00;;;1.20;85.20;;;;;;5006114;28;20213;-73
2023/03/28 05:12:00;;;;;;;8.83;4.33;;;1.20;85.00;;;;;;4994385;28;20579;-73
2023/03/28 05:14:26;;;;;;;9.37;4.37;;;1.20;84.90;;;;;;5005491;28;20454;-73
2023/03/28 05:16:51;;;;;;;9.40;4.00;;;1.20;84.90;;;;;;4992912;28;20190;-73
2023/03/28 05:19:19;;;;;;;13.57;4.30;;;1.30;85.00;;;;;;5005226;28;20262;-73
2023/03/28 05:21:45;;;;;;;10.00;4.20;;;1.30;84.90;;;;;;4993431;28;20491;-73
2023/03/28 05:24:10;;;;;;;4.90;3.60;;;1.30;84.90;;;;;;5002209;28;20189;-73
2023/03/28 05:26:36;;;;;;;7.80;4.00;;;1.30;84.70;;;;;;5004465;28;20232;-73
2023/03/28 05:29:02;;;;;;;7.57;4.40;;;1.30;84.60;;;;;;5005755;28;20185;-74
2023/03/28 05:31:29;;;;;;;6.30;3.70;;;1.30;84.60;;;;;;4994130;28;20302;-73
2023/03/28 05:33:55;;;;;;;7.38;3.58;;;1.20;84.40;;;;;;5004525;28;20430;-73
2023/03/28 05:36:22;;;;;;;11.63;4.00;;;1.30;84.40;;;;;;5014855;28;20650;-73
2023/03/28 05:38:48;;;;;;;10.52;4.10;;;1.30;84.30;;;;;;5008406;28;20238;-74
2023/03/28 05:41:14;;;;;;;9.93;4.07;;;1.20;84.30;;;;;;4999176;28;20209;-74
2023/03/28 05:43:40;;;;;;;8.40;3.20;;;1.30;84.40;;;;;;4991972;28;20236;-73
2023/03/28 05:46:06;;;;;;;7.30;3.93;;;1.30;84.40;;;;;;4999916;28;20258;-74
2023/03/28 05:48:31;;;;;;;7.28;3.83;;;1.30;84.40;;;;;;5000862;28;20425;-74
2023/03/28 05:50:57;;;;;;;7.40;3.93;;;1.30;84.40;;;;;;5005409;28;20178;-73
2023/03/28 05:53:23;;;;;;;8.83;4.20;;;1.40;84.40;;;;;;4993337;28;20737;-73
2023/03/28 05:55:49;;;;;;;9.07;4.53;;;1.40;84.40;;;;;;5002873;28;20186;-73
2023/03/28 05:58:16;;;;;;;7.15;4.00;;;1.40;84.30;;;;;;4996438;28;20222;-73
2023/03/28 06:00:43;;;;;;;10.23;4.00;;;1.50;84.30;;;;;;5000540;28;20197;-74
2023/03/28 06:03:09;;;;;;;6.47;4.05;;;1.40;84.10;;;;;;4992537;28;20210;-73
2023/03/28 06:05:38;;;;;;;9.85;3.75;;;1.40;84.10;;;;;;5005487;28;20287;-74
2023/03/28 06:08:03;;;;;;;8.82;4.10;;;1.40;84.00;;;;;;4995689;28;20205;-71
2023/03/28 06:10:29;;;;;;;8.03;4.40;;;1.50;84.00;;;;;;5004989;28;20181;-73
2023/03/28 06:12:55;;;;;;;9.90;4.37;;;1.50;83.60;;;;;;4989690;28;20207;-72
2023/03/28 06:15:21;;;;;;;14.17;4.77;;;1.50;83.60;;;;;;5002104;28;20488;-72
2023/03/28 06:17:47;;;;;;;10.25;4.50;;;1.50;83.80;;;;;;4993338;28;20215;-71
2023/03/28 06:20:12;;;;;;;14.73;4.60;;;1.60;84.00;;;;;;5007175;28;20250;-71
2023/03/28 06:22:38;;;;;;;9.03;4.53;;;1.60;84.00;;;;;;4999347;28;20198;-71
2023/03/28 06:25:05;;;;;;;11.97;4.87;;;1.60;84.00;;;;;;5006190;28;20182;-72
2023/03/28 06:27:31;;;;;;;30.50;5.78;;;1.70;84.10;;;;;;4998986;28;20418;-72
2023/03/28 06:29:58;;;;;;;12.35;7.63;;;1.70;84.00;;;;;;5005873;28;20183;-73
2023/03/28 06:32:25;;;;;;;7.00;4.05;;;1.70;83.80;;;;;;4990503;28;20203;-72
2023/03/28 06:34:50;;;;;;;12.35;4.10;;;1.70;83.60;;;;;;5001645;28;20198;-73
2023/03/28 06:37:16;;;;;;;11.70;3.80;;;1.80;83.40;;;;;;5002275;28;20175;-71
2023/03/28 06:39:41;;;;;;;11.53;4.43;;;1.90;83.00;;;;;;5001113;28;20552;-71
2023/03/28 06:42:07;;;;;;;9.30;4.00;;;2.00;82.40;;;;;;4988065;28;20199;-72
2023/03/28 06:44:32;;;;;;;10.03;5.90;;;2.00;82.10;;;;;;5000964;28;20272;-72
2023/03/28 06:46:58;;;;;;;9.30;4.50;;;2.00;81.90;;;;;;4995565;28;20225;-73
2023/03/28 06:49:24;;;;;;;6.07;4.40;;;2.10;81.70;;;;;;5000033;28;20195;-72
2023/03/28 06:51:50;;;;;;;6.17;3.20;;;2.20;81.50;;;;;;4996619;28;20207;-72
2023/03/28 06:54:15;;;;;;;9.65;3.80;;;2.20;81.10;;;;;;4996831;28;20178;-73
2023/03/28 06:56:41;;;;;;;6.97;4.27;;;2.30;80.50;;;;;;4999738;28;21200;-73
2023/03/28 06:59:07;;;;;;;8.80;3.80;;;2.40;80.00;;;;;;4998325;28;20265;-73
2023/03/28 07:01:32;;;;;;;9.03;4.10;;;2.40;79.60;;;;;;4993046;28;20728;-74
2023/03/28 07:03:58;;;;;;;9.00;4.23;;;2.50;79.30;;;;;;4995474;28;20265;-73
2023/03/28 07:06:26;;;;;;;10.57;3.50;;;2.50;79.00;;;;;;5001125;28;20202;-73
2023/03/28 07:08:52;;;;;;;13.63;4.10;;;2.50;78.60;;;;;;4996721;28;20650;-72
2023/03/28 07:11:17;;;;;;;5.90;3.40;;;2.60;78.40;;;;;;4997927;28;20201;-73
2023/03/28 07:13:43;;;;;;;8.20;3.70;;;2.70;78.40;;;;;;4993164;28;20417;-71
2023/03/28 07:16:14;;;;;;;8.33;3.40;;;2.90;77.70;;;;;;5000175;28;20185;-71
2023/03/28 07:18:40;;;;;;;10.90;4.00;;;2.90;77.30;;;;;;4996042;28;20206;-72
2023/03/28 07:21:11;;;;;;;8.60;3.90;;;2.90;77.10;;;;;;4994225;28;20423;-73
2023/03/28 07:23:40;;;;;;;9.87;4.10;;;3.10;77.10;;;;;;4996227;28;20811;-72
2023/03/28 07:26:07;;;;;;;9.47;3.93;;;3.20;76.50;;;;;;5002899;28;20410;-72
2023/03/28 07:28:33;;;;;;;5.47;3.23;;;3.30;75.80;;;;;;4998525;28;20417;-71
2023/03/28 07:31:00;;;;;;;11.97;3.47;;;3.30;75.40;;;;;;5002301;28;20551;-73
2023/03/28 07:33:26;;;;;;;11.63;3.83;;;3.30;75.40;;;;;;4993257;28;20513;-73
2023/03/28 07:35:52;;;;;;;7.90;3.47;;;3.30;75.10;;;;;;4998770;28;20472;-72
2023/03/28 07:38:18;;;;;;;9.17;4.27;;;3.30;74.30;;;;;;5000339;28;20279;-73
2023/03/28 07:40:43;;;;;;;8.30;4.07;;;3.40;73.90;;;;;;4998737;28;20182;-72
2023/03/28 07:43:09;;;;;;;5.63;3.50;;;3.50;73.70;;;;;;4994212;28;20217;-71
2023/03/28 07:45:36;;;;;;;9.17;3.70;;;3.70;73.30;;;;;;4999431;28;20198;-72
2023/03/28 07:48:02;;;;;;;8.77;3.70;;;3.70;72.40;;;;;;4999311;28;20560;-73
2023/03/28 07:50:27;;;;;;;11.00;4.57;;;3.70;72.60;;;;;;4998915;28;20421;-73
2023/03/28 07:52:56;;;;;;;7.00;3.40;;;3.70;72.40;;;;;;4993693;28;20452;-71
2023/03/28 07:55:24;;;;;;;12.17;3.83;;;3.70;71.80;;;;;;4997437;28;20949;-73
2023/03/28 07:57:50;;;;;;;9.33;3.40;;;3.80;72.00;;;;;;5005377;28;20468;-72
2023/03/28 08:00:16;;;;;;;5.57;3.00;;;4.00;71.80;;;;;;5000389;28;20414;-72
2023/03/28 08:02:42;;;;;;;5.57;2.90;;;4.10;71.80;;;;;;4999318;28;20495;-71
2023/03/28 08:05:08;;;;;;;22.57;4.30;;;4.20;71.70;;;;;;5001623;28;20437;-72
2023/03/28 08:07:34;;;;;;;6.97;3.50;;;4.30;71.00;;;;;;5003548;28;20269;-72
2023/03/28 08:10:00;;;;;;;5.50;3.30;;;4.50;70.80;;;;;;4995382;28;20429;-73
2023/03/28 08:12:26;;;;;;;5.50;3.47;;;4.50;71.30;;;;;;5002235;28;20496;-71
2023/03/28 08:14:52;;;;;;;9.30;3.33;;;4.60;71.40;;;;;;4997705;28;20182;-72
2023/03/28 08:17:17;;;;;;;7.70;2.97;;;4.70;70.80;;;;;;4994919;28;20432;-73
2023/03/28 08:19:43;;;;;;;5.70;2.73;;;4.90;70.20;;;;;;4994519;28;20689;-72
2023/03/28 08:22:11;;;;;;;7.93;3.10;;;5.00;70.10;;;;;;4995639;28;20206;-72
2023/03/28 08:24:36;;;;;;;7.60;3.00;;;5.00;68.50;;;;;;4991633;28;20996;-72
2023/03/28 08:27:02;;;;;;;4.80;2.60;;;4.90;68.00;;;;;;4998263;28;20512;-73
2023/03/28 08:29:28;;;;;;;6.57;2.73;;;5.00;67.60;;;;;;4995461;28;20824;-73
2023/03/28 08:31:54;;;;;;;6.40;2.83;;;5.10;67.30;;;;;;4995175;28;20549;-73
2023/03/28 08:34:19;;;;;;;5.70;2.80;;;5.10;67.30;;;;;;4994999;28;20186;-73
2023/03/28 08:36:45;;;;;;;3.40;1.83;;;5.20;67.30;;;;;;4998622;28;20186;-73
2023/03/28 08:39:11;;;;;;;7.10;2.70;;;5.40;65.70;;;;;;4996807;28;20236;-72
2023/03/28 08:41:58;;;;;;;5.57;2.30;;;5.30;64.20;;;;;;4993735;28;20462;-71
2023/03/28 08:44:52;;;;;;;9.33;2.20;;;5.30;65.70;;;;;;4995655;28;20187;-72
2023/03/28 08:47:31;;;;;;;3.70;2.50;;;5.40;64.20;;;;;;4994685;28;20424;-72
2023/03/28 08:50:15;;;;;;;4.50;2.30;;;5.50;64.40;;;;;;4996941;28;20508;-74
2023/03/28 08:52:42;;;;;;;8.40;2.13;;;5.80;63.90;;;;;;4993212;28;20456;-71
2023/03/28 08:55:29;;;;;;;3.77;2.10;;;5.90;62.60;;;;;;5001431;28;20430;-72
2023/03/28 08:57:56;;;;;;;5.43;2.70;;;6.00;61.60;;;;;;4989385;28;20536;-72
2023/03/28 09:00:35;;;;;;;5.57;2.40;;;6.00;60.70;;;;;;5003069;28;20469;-72
2023/03/28 09:03:01;;;;;;;3.83;2.30;;;5.80;61.00;;;;;;4990791;28;20893;-72
2023/03/28 09:05:48;;;;;;;5.00;2.37;;;5.90;59.70;;;;;;5002510;28;20556;-72
2023/03/28 09:08:32;;;;;;;3.90;2.60;;;5.90;59.50;;;;;;4994656;28;20429;-73
2023/03/28 09:11:02;;;;;;;4.37;2.30;;;6.00;59.50;;;;;;4995301;28;20489;-72
2023/03/28 09:13:55;;;;;;;5.00;2.37;;;6.10;58.50;;;;;;4992098;28;20459;-73
2023/03/28 09:16:47;;;;;;;6.13;1.90;;;6.10;57.20;;;;;;4993013;28;20434;-72
2023/03/28 09:19:27;;;;;;;4.53;2.63;;;6.20;55.00;;;;;;5003056;28;20547;-71
2023/03/28 09:22:09;;;;;;;4.40;2.37;;;6.10;55.00;;;;;;4988513;28;20508;-72
2023/03/28 09:24:56;;;;;;;5.60;1.77;;;6.20;56.80;;;;;;4996785;28;20457;-73
2023/03/28 09:27:59;;;;;;;2.50;1.97;;;6.30;56.80;;;;;;5004792;28;20414;-72
2023/03/28 09:30:30;;;;;;;3.73;2.60;;;6.20;55.00;;;;;;5001305;28;20476;-72
2023/03/28 09:32:59;;;;;;;2.80;2.30;;;6.30;55.80;;;;;;4994250;28;20549;-72
2023/03/28 09:35:27;;;;;;;7.67;2.30;;;6.50;54.90;;;;;;4998916;28;20446;-72
2023/03/28 09:37:57;;;;;;;3.57;2.10;;;6.60;54.10;;;;;;5000658;28;20537;-71
2023/03/28 09:40:26;;;;;;;6.83;2.20;;;6.70;53.60;;;;;;5002229;28;20426;-71
2023/03/28 09:43:31;;;;;;;4.23;2.50;;;6.90;54.00;;;;;;4993780;28;20449;-72
2023/03/28 09:46:10;;;;;;;7.40;2.50;;;7.10;53.00;;;;;;4997888;28;20433;-73
2023/03/28 09:48:37;;;;;;;7.30;3.10;;;7.20;52.60;;;;;;4990929;28;20445;-71
2023/03/28 09:51:05;;;;;;;5.53;2.37;;;7.40;52.50;;;;;;5003798;28;20422;-71
2023/03/28 09:53:36;;;;;;;4.90;1.90;;;7.40;51.00;;;;;;4990174;28;20508;-72
2023/03/28 09:56:22;;;;;;;5.17;2.10;;;7.30;51.20;;;;;;5001327;28;20426;-72
2023/03/28 09:58:47;;;;;;;4.47;2.30;;;7.10;50.60;;;;;;4993908;28;21035;-71
2023/03/28 10:01:44;;;;;;;4.73;2.70;;;6.70;51.60;;;;;;5002883;28;20558;-73
2023/03/28 10:04:36;;;;;;;4.20;2.87;;;6.60;51.70;;;;;;4999211;28;20175;-74
2023/03/28 10:07:08;;;;;;;3.90;1.80;;;6.60;51.80;;;;;;4996107;28;20430;-72
2023/03/28 10:09:45;;;;;;;4.90;2.40;;;6.70;52.10;;;;;;5003525;28;20417;-71
2023/03/28 10:12:22;;;;;;;3.83;2.10;;;6.80;52.00;;;;;;4989266;28;20453;-71
2023/03/28 10:14:48;;;;;;;5.60;2.23;;;6.90;50.90;;;;;;5003829;28;20505;-75
2023/03/28 10:17:26;;;;;;;5.87;2.07;;;6.90;50.10;;;;;;4993863;28;20881;-73
2023/03/28 10:19:57;;;;;;;4.50;2.40;;;7.00;49.90;;;;;;4999852;28;20197;-72
2023/03/28 10:22:43;;;;;;;4.43;2.50;;;7.10;49.40;;;;;;4997632;28;20465;-72
2023/03/28 10:25:29;;;;;;;3.67;2.40;;;7.00;49.80;;;;;;4999623;28;20917;-72
2023/03/28 10:27:55;;;;;;;5.90;2.43;;;7.00;49.90;;;;;;5005334;28;20939;-73
2023/03/28 10:30:28;;;;;;;4.43;2.20;;;6.90;51.30;;;;;;5001711;28;20516;-71
2023/03/28 10:33:20;;;;;;;4.47;2.50;;;7.10;51.20;;;;;;4995042;28;20543;-73
2023/03/28 10:35:46;;;;;;;6.80;2.30;;;7.20;50.20;;;;;;4997700;28;20425;-72
2023/03/28 10:38:15;;;;;;;5.13;3.33;;;7.20;49.90;;;;;;5007430;28;20477;-72
2023/03/28 10:40:41;;;;;;;8.10;2.77;;;7.20;50.20;;;;;;4999164;28;20425;-72
2023/03/28 10:43:13;;;;;;;3.70;2.50;;;7.20;49.50;;;;;;4995722;28;20469;-73
2023/03/28 10:45:42;;;;;;;5.73;2.80;;;7.30;50.10;;;;;;4996332;28;20197;-72
2023/03/28 10:48:16;;;;;;;7.30;2.30;;;7.60;50.10;;;;;;5010336;28;20512;-72
2023/03/28 10:50:50;;;;;;;5.40;2.90;;;7.90;49.90;;;;;;4999211;28;20994;-72
2023/03/28 10:53:37;;;;;;;7.20;2.77;;;8.20;48.70;;;;;;4993687;28;20461;-73
2023/03/28 10:56:24;;;;;;;6.47;2.47;;;8.60;47.90;;;;;;4993690;28;20439;-71
2023/03/28 10:59:16;;;;;;;3.37;2.10;;;8.90;47.10;;;;;;4994031;28;20469;-73
2023/03/28 11:01:47;;;;;;;6.07;2.70;;;9.20;45.90;;;;;;4982314;28;20598;-72
2023/03/28 11:04:23;;;;;;;5.93;3.10;;;9.40;45.10;;;;;;4993920;28;20516;-71
2023/03/28 11:07:02;;;;;;;5.53;2.47;;;9.70;45.00;;;;;;4998691;28;21162;-72
2023/03/28 11:10:00;;;;;;;4.80;2.87;;;9.70;43.50;;;;;;4997355;28;20425;-74
2023/03/28 11:12:50;;;;;;;5.30;2.10;;;10.20;43.70;;;;;;4977444;28;20485;-71
2023/03/28 11:15:40;;;;;;;3.30;2.00;;;10.70;42.00;;;;;;4966355;28;20534;-72
2023/03/28 11:18:26;;;;;;;5.23;2.30;;;11.20;41.50;;;;;;4974651;28;20617;-73
2023/03/28 11:21:41;;;;;;;4.13;2.30;;;11.80;39.20;;;;;;4981712;28;20469;-71
2023/03/28 11:24:21;;;;;;;3.50;2.07;;;11.70;38.40;;;;;;4935864;29;20524;-73
2023/03/28 11:26:54;;;;;;;3.90;2.40;;;11.30;39.10;;;;;;4938228;29;20588;-72
2023/03/28 11:29:32;;;;;;;4.20;2.37;;;10.70;40.00;;;;;;4942932;29;20440;-72
2023/03/28 11:32:26;;;;;;;4.40;2.13;;;10.50;41.20;;;;;;4929767;29;20476;-73
2023/03/28 11:35:12;;;;;;;5.63;2.67;;;10.80;41.80;;;;;;4937348;29;20620;-73
2023/03/28 11:37:40;;;;;;;5.03;2.47;;;11.00;40.60;;;;;;4943120;29;20427;-72
2023/03/28 11:40:38;;;;;;;8.77;2.90;;;10.90;41.00;;;;;;4942974;28;20617;-73
2023/03/28 11:43:07;;;;;;;4.90;2.90;;;10.80;41.50;;;;;;4937314;29;20468;-71
2023/03/28 11:45:39;;;;;;;4.37;2.90;;;10.90;40.80;;;;;;4942851;29;20431;-73
2023/03/28 11:48:27;;;;;;;6.57;2.90;;;11.00;41.50;;;;;;4953525;28;20467;-73
2023/03/28 11:51:02;;;;;;;3.93;2.13;;;11.00;40.20;;;;;;4953983;28;20420;-72
2023/03/28 11:53:53;;;;;;;8.77;2.47;;;11.00;40.40;;;;;;4953768;28;21086;-72
2023/03/28 11:56:24;;;;;;;5.83;3.00;;;11.10;40.70;;;;;;4959748;28;20453;-72
2023/03/28 11:58:53;;;;;;;9.33;3.00;;;11.00;41.40;;;;;;4937577;29;21022;-72
2023/03/28 12:01:31;;;;;;;7.60;3.00;;;10.60;42.70;;;;;;4991010;28;20488;-72
2023/03/28 12:04:21;;;;;;;7.30;3.00;;;10.50;42.30;;;;;;4996641;28;20418;-73
2023/03/28 12:07:07;;;;;;;7.10;2.67;;;10.70;42.60;;;;;;4996516;28;20487;-72
2023/03/28 12:09:39;;;;;;;7.77;2.70;;;11.00;41.50;;;;;;4991152;28;20448;-73
2023/03/28 12:12:11;;;;;;;3.53;2.77;;;10.50;41.80;;;;;;4993711;28;20446;-73
2023/03/28 12:14:40;;;;;;;5.43;3.10;;;10.40;42.80;;;;;;4991573;28;20453;-72
2023/03/28 12:17:42;;;;;;;6.00;2.83;;;10.60;42.80;;;;;;4999077;28;20422;-73
2023/03/28 12:20:14;;;;;;;3.23;2.47;;;10.90;40.30;;;;;;4993742;28;20654;-72
2023/03/28 12:22:45;;;;;;;6.77;2.87;;;11.00;40.20;;;;;;4993993;28;20452;-72
2023/03/28 12:25:34;;;;;;;8.53;3.27;;;11.20;39.80;;;;;;4976258;28;20546;-72
2023/03/28 12:28:02;;;;;;;7.70;3.50;;;11.10;40.80;;;;;;4991705;28;20430;-72
2023/03/28 12:30:52;;;;;;;4.13;2.50;;;11.00;43.00;;;;;;5001726;28;20642;-73
2023/03/28 12:33:51;;;;;;;3.30;2.70;;;11.40;42.30;;;;;;4981674;28;21333;-73
2023/03/28 12:36:36;;;;;;;3.17;2.20;;;11.30;40.60;;;;;;4992923;28;20437;-72
2023/03/28 12:39:33;;;;;;;3.90;2.70;;;11.00;41.20;;;;;;4974291;28;20480;-74
2023/03/28 12:42:02;;;;;;;5.60;2.90;;;11.00;41.50;;;;;;4987586;28;20504;-71
2023/03/28 12:44:35;;;;;;;4.10;2.67;;;11.10;41.90;;;;;;4999736;28;20424;-72
2023/03/28 12:47:07;;;;;;;5.23;2.60;;;11.40;41.80;;;;;;4988594;28;20409;-71
2023/03/28 12:49:47;;;;;;;4.80;2.60;;;11.80;41.00;;;;;;4990022;28;20434;-72
2023/03/28 12:52:29;;;;;;;4.93;2.90;;;12.00;40.20;;;;;;4974637;28;20457;-73
2023/03/28 12:55:26;;;;;;;4.50;2.60;;;11.70;40.40;;;;;;5001928;28;20425;-72
2023/03/28 12:57:54;;;;;;;4.50;2.50;;;11.70;41.10;;;;;;4988580;28;20468;-72
2023/03/28 13:00:20;;;;;;;7.63;2.90;;;12.00;41.10;;;;;;5002022;28;20512;-72
2023/03/28 13:02:57;;;;;;;4.40;2.53;;;12.20;40.40;;;;;;4989521;28;20827;-73
2023/03/28 13:06:00;;;;;;;6.67;2.70;;;12.30;39.20;;;;;;4995858;28;20205;-73
2023/03/28 13:09:10;;;;;;;6.70;2.97;;;12.50;39.10;;;;;;5003925;28;20428;-72
2023/03/28 13:11:57;;;;;;;6.20;2.60;;;12.10;39.50;;;;;;4985323;28;20533;-72
2023/03/28 13:14:40;;;;;;;4.90;2.67;;;11.80;39.50;;;;;;5001536;28;20421;-73
2023/03/28 13:17:24;;;;;;;6.63;2.90;;;11.60;39.50;;;;;;5005727;28;20410;-71
2023/03/28 13:20:05;;;;;;;5.03;2.63;;;11.50;40.30;;;;;;4997296;28;20469;-72
2023/03/28 13:22:37;;;;;;;3.07;2.10;;;11.30;40.60;;;;;;4987842;28;20551;-73
2023/03/28 13:25:24;;;;;;;4.40;2.70;;;11.20;40.40;;;;;;4995890;28;20421;-72